Map

Track Data

SID SEASON NUMBER BASIN SUBBASIN NAME ISO_TIME NATURE LAT LON WMO_WIND WMO_PRES WMO_AGENCY TRACK_TYPE DIST2LAND LANDFALL IFLAG USA_AGENCY USA_ATCF_ID USA_LAT USA_LON USA_RECORD USA_STATUS USA_WIND USA_PRES USA_SSHS USA_R34_NE USA_R34_SE USA_R34_SW USA_R34_NW USA_R50_NE USA_R50_SE USA_R50_SW USA_R50_NW USA_R64_NE USA_R64_SE USA_R64_SW USA_R64_NW USA_POCI USA_ROCI USA_RMW USA_EYE TOKYO_LAT TOKYO_LON TOKYO_GRADE TOKYO_WIND TOKYO_PRES TOKYO_R50_DIR TOKYO_R50_LONG TOKYO_R50_SHORT TOKYO_R30_DIR TOKYO_R30_LONG TOKYO_R30_SHORT TOKYO_LAND CMA_LAT CMA_LON CMA_CAT CMA_WIND CMA_PRES HKO_LAT HKO_LON HKO_CAT HKO_WIND HKO_PRES NEWDELHI_LAT NEWDELHI_LON NEWDELHI_GRADE NEWDELHI_WIND NEWDELHI_PRES NEWDELHI_CI NEWDELHI_DP NEWDELHI_POCI REUNION_LAT REUNION_LON REUNION_TYPE REUNION_WIND REUNION_PRES REUNION_TNUM REUNION_CI REUNION_RMW REUNION_R34_NE REUNION_R34_SE REUNION_R34_SW REUNION_R34_NW REUNION_R50_NE REUNION_R50_SE REUNION_R50_SW REUNION_R50_NW REUNION_R64_NE REUNION_R64_SE REUNION_R64_SW REUNION_R64_NW BOM_LAT BOM_LON BOM_TYPE BOM_WIND BOM_PRES BOM_TNUM BOM_CI BOM_RMW BOM_R34_NE BOM_R34_SE BOM_R34_SW BOM_R34_NW BOM_R50_NE BOM_R50_SE BOM_R50_SW BOM_R50_NW BOM_R64_NE BOM_R64_SE BOM_R64_SW BOM_R64_NW BOM_ROCI BOM_POCI BOM_EYE BOM_POS_METHOD BOM_PRES_METHOD NADI_LAT NADI_LON NADI_CAT NADI_WIND NADI_PRES WELLINGTON_LAT WELLINGTON_LON WELLINGTON_WIND WELLINGTON_PRES DS824_LAT DS824_LON DS824_STAGE DS824_WIND DS824_PRES TD9636_LAT TD9636_LON TD9636_STAGE TD9636_WIND TD9636_PRES TD9635_LAT TD9635_LON TD9635_WIND TD9635_PRES TD9635_ROCI NEUMANN_LAT NEUMANN_LON NEUMANN_CLASS NEUMANN_WIND NEUMANN_PRES MLC_LAT MLC_LON MLC_CLASS MLC_WIND MLC_PRES USA_GUST BOM_GUST BOM_GUST_PER REUNION_GUST REUNION_GUST_PER USA_SEAHGT USA_SEARAD_NE USA_SEARAD_SE USA_SEARAD_SW USA_SEARAD_NW STORM_SPEED STORM_DIR
1986275N10134 1986 100 WP MM DOM 1986-10-02 00:00:00 NR 9.90000 134.100 main 860 784 __________O___ -1 9.90000 134.100 0 18 288
1986275N10134 1986 100 WP MM DOM 1986-10-02 03:00:00 NR 10.1877 133.224 main 773 695 __________P___ -1 10.1877 133.224 0 18 288
1986275N10134 1986 100 WP MM DOM 1986-10-02 06:00:00 NR 10.4691 132.356 main 695 615 __________P___ -1 10.4691 132.356 0 18 288
1986275N10134 1986 100 WP MM DOM 1986-10-02 09:00:00 NR 10.7401 131.507 main 604 532 __________P___ -1 10.7401 131.507 0 17 288
1986275N10134 1986 100 WP MM DOM 1986-10-02 12:00:00 NR 10.9965 130.686 main 532 448 __________P___ -1 10.9965 130.686 0 17 287
1986275N10134 1986 100 WP MM DOM 1986-10-02 15:00:00 NR 11.2344 129.905 main 448 373 __________P___ -1 11.2344 129.905 0 16 287
1986275N10134 1986 100 WP MM DOM 1986-10-02 18:00:00 NR 11.4500 129.173 main 375 302 __________P___ -1 11.4500 129.173 0 14 286
1986275N10134 1986 100 WP MM DOM 1986-10-02 21:00:00 NR 11.6397 128.501 main 302 245 __________P___ -1 11.6397 128.501 0 13 286
1986275N10134 1986 100 WP MM DOM 1986-10-03 00:00:00 NR 11.8000 127.900 main 245 201 __________O___ -1 11.8000 127.900 1 25 11 285
1986275N10134 1986 100 WP MM DOM 1986-10-03 03:00:00 NR 11.9309 127.376 main 201 153 __________P___ -1 11.9309 127.376 1 25 10 284
1986275N10134 1986 100 WP MM DOM 1986-10-03 06:00:00 NR 12.0463 126.924 main 153 119 __________P___ -1 12.0463 126.924 1 25 9 286
1986275N10134 1986 100 WP MM DOM 1986-10-03 09:00:00 NR 12.1636 126.535 main 108 76 __________P___ -1 12.1636 126.535 1 25 8 290
1986275N10134 1986 100 WP MM DOM 1986-10-03 12:00:00 NR 12.3000 126.200 main 76 54 __________O___ -1 12.3000 126.200 1 25 7 297
1986275N10134 1986 100 WP MM DOM 1986-10-03 15:00:00 NR 12.4903 125.892 main 54 46 __________P___ -1 12.4903 125.892 1 25 7 306
1986275N10134 1986 100 WP MM DOM 1986-10-03 18:00:00 NR 12.6996 125.633 main 46 46 __________P___ -1 12.6996 125.633 1 25 6 312
1986275N10134 1986 100 WP MM DOM 1986-10-03 21:00:00 NR 12.9091 125.407 main 49 49 __________P___ -1 12.9091 125.407 1 25 6 314
1986275N10134 1986 100 WP MM DOM 1986-10-04 00:00:00 NR 13.1000 125.200 main 67 67 __________O___ -1 13.1000 125.200 1 25 5 312
1986275N10134 1986 100 WP MM DOM 1986-10-04 03:00:00 NR 13.2503 125.014 main 78 54 __________P___ -1 13.2503 125.014 1 25 5 308
1986275N10134 1986 100 WP MM DOM 1986-10-04 06:00:00 NR 13.3795 124.837 main 54 39 __________P___ -1 13.3795 124.837 1 25 4 304
1986275N10134 1986 100 WP MM DOM 1986-10-04 09:00:00 NR 13.4940 124.642 main 31 10 __________P___ -1 13.4940 124.642 1 25 5 297
1986275N10134 1986 100 WP MM DOM 1986-10-04 12:00:00 NR 13.6000 124.400 main 10 0 __________O___ -1 13.6000 124.400 1 25 6 291
1986275N10134 1986 100 WP MM DOM 1986-10-04 15:00:00 NR 13.7157 124.051 main 0 0 __________P___ -1 13.7157 124.051 1 26 8 287
1986275N10134 1986 100 WP MM DOM 1986-10-04 18:00:00 NR 13.8230 123.658 main 0 0 __________P___ -1 13.8230 123.658 1 27 8 285
1986275N10134 1986 100 WP MM DOM 1986-10-04 21:00:00 NR 13.9188 123.260 main 0 0 __________P___ -1 13.9188 123.260 1 28 8 284
1986275N10134 1986 100 WP MM DOM 1986-10-05 00:00:00 NR 14.0000 122.900 main 0 0 __________O___ -1 14.0000 122.900 1 30 6 283
1986275N10134 1986 100 WP MM DOM 1986-10-05 03:00:00 NR 14.0598 122.652 main 0 0 __________P___ -1 14.0598 122.652 1 30 5 284
1986275N10134 1986 100 WP MM DOM 1986-10-05 06:00:00 NR 14.1069 122.442 main 0 0 __________P___ -1 14.1069 122.442 1 30 4 283
1986275N10134 1986 100 WP MM DOM 1986-10-05 09:00:00 NR 14.1505 122.236 main 11 11 __________P___ -1 14.1505 122.236 1 30 6 309
1986275N10134 1986 100 WP MM DOM 1986-10-05 12:00:00 TS 14.4600 122.000 1008 tokyo main 34 10 _O________O___ -1 15.5000 122.000 2 1008 0 0 0 14.2000 122.000 1 30 7 314
1986275N10134 1986 100 WP MM DOM 1986-10-05 15:00:00 TS 14.6550 121.688 main 0 0 _P________P___ -1 15.4126 121.750 2 1007 0 0 14.2763 121.658 1 30 7 303
1986275N10134 1986 100 WP MM DOM 1986-10-05 18:00:00 TS 14.8165 121.430 1006 tokyo main 0 0 _O_O______P___ -1 15.3000 121.500 2 1006 0 0 0 15.2000 121.800 TD 25 1004 14.3580 121.285 1 30 5 293
1986275N10134 1986 100 WP MM DOM 1986-10-05 21:00:00 TS 14.8643 121.180 main 0 0 _P_P______P___ -1 15.1500 121.250 2 1006 0 0 15.1500 121.557 TD 25 1004 14.4356 120.920 1 30 4 274
1986275N10134 1986 100 WP MM DOM 1986-10-06 00:00:00 TS 14.8417 121.025 1006 tokyo main 0 0 _OOO______O___ -1 15.0000 121.000 2 1006 0 0 0 14.8000 122.000 1 29 1005 15.1000 121.300 TD 25 1004 14.5000 120.600 1 30 3 264
1986275N10134 1986 100 WP MM DOM 1986-10-06 03:00:00 TS 14.8314 120.859 main 0 0 _PPP______P___ -1 14.9000 120.750 2 1006 0 0 14.8501 121.750 1 29 1003 15.0500 121.015 TD 25 1005 14.5350 120.366 1 28 3 265
1986275N10134 1986 100 WP MM DOM 1986-10-06 06:00:00 TS 14.8086 120.669 1006 tokyo main 0 0 _OOO______P___ -1 14.8000 120.500 2 1006 0 0 0 14.9000 121.500 1 29 1001 15.0000 120.700 TD 25 1006 14.5572 120.182 1 27 4 262
1986275N10134 1986 100 WP MM DOM 1986-10-06 09:00:00 TS 14.7796 120.471 main 0 0 _PPP______P___ -1 14.6500 120.250 2 1006 0 0 14.9500 121.250 1 29 1001 14.9425 120.350 TD 25 1006 14.5758 120.032 1 26 4 262
1986275N10134 1986 100 WP MM DOM 1986-10-06 12:00:00 TS 14.7500 120.225 1006 tokyo main 0 0 _OOO______O___ -1 14.5000 120.000 2 1006 0 0 0 15.0000 121.000 1 29 1001 14.9000 120.000 TD 25 1006 14.6000 119.900 1 25 5 267
1986275N10134 1986 100 WP MM DOM 1986-10-06 15:00:00 TS 14.7539 119.991 main 10 10 _PPP______P___ -1 14.4000 119.750 2 1006 0 0 15.0724 120.765 1 29 1001 14.8925 119.678 TD 25 1006 14.6508 119.773 1 25 4 270
1986275N10134 1986 100 WP MM DOM 1986-10-06 18:00:00 TS 14.7518 119.764 1006 tokyo main 32 32 _OOO______P___ -1 14.3000 119.500 2 1006 0 0 0 15.1000 120.500 1 29 1002 14.9000 119.400 TD 25 1006 14.7073 119.658 1 25 5 264
1986275N10134 1986 100 WP MM DOM 1986-10-06 21:00:00 TS 14.7044 119.520 main 65 65 _PPP______P___ -1 14.1500 119.250 2 1005 0 0 15.0077 120.112 1 26 1002 14.9000 119.178 TD 25 1006 14.7602 119.538 1 25 5 257
1986275N10134 1986 100 WP MM DOM 1986-10-07 00:00:00 TS 14.6500 119.300 1004 tokyo main 86 86 _OOO______O___ -1 14.0000 119.000 2 1004 0 0 0 14.9000 119.800 1 23 1003 14.9000 119.000 TD 25 1006 14.8000 119.400 1 25 4 257
1986275N10134 1986 100 WP MM DOM 1986-10-07 03:00:00 TS 14.6192 119.140 main 109 109 _PPP______P___ -1 13.8850 118.750 2 1004 0 0 14.8774 119.763 1 23 1003 14.9000 118.835 TD 25 1006 14.8144 119.213 1 25 3 261
1986275N10134 1986 100 WP MM DOM 1986-10-07 06:00:00 TS 14.6038 119.002 1004 tokyo main 120 120 _OOO______P___ -1 13.8000 118.500 2 1004 0 0 0 14.9000 119.800 1 23 1003 14.9000 118.700 TD 25 1006 14.8151 119.007 1 25 3 266
1986275N10134 1986 100 WP MM DOM 1986-10-07 09:00:00 TS 14.5982 118.858 main 131 131 _PPP______P___ -1 13.7350 118.258 2 1004 0 0 14.9498 119.783 1 23 1003 14.9000 118.593 TD 25 1006 14.8082 118.798 1 25 3 269
1986275N10134 1986 100 WP MM DOM 1986-10-07 12:00:00 TS 14.6000 118.675 1004 tokyo main 152 152 _OOO______O___ -1 13.7000 118.000 2 1004 0 0 0 15.0000 119.600 1 23 1004 14.9000 118.500 TD 25 1006 14.8000 118.600 1 25 4 270
1986275N10134 1986 100 WP MM DOM 1986-10-07 15:00:00 TS 14.6019 118.410 main 184 184 _PPP______P___ -1 13.6850 117.708 2 1004 0 0 15.0304 119.080 1 26 1003 14.8925 118.400 TD 25 1006 14.7998 118.452 1 25 5 270
1986275N10134 1986 100 WP MM DOM 1986-10-07 18:00:00 TS 14.5999 118.129 1004 tokyo main 213 213 _OOO______P___ -1 13.7000 117.400 2 1004 0 0 0 15.0000 118.500 1 29 1002 14.9000 118.300 TD 25 1006 14.7998 118.315 1 25 5 269
1986275N10134 1986 100 WP MM DOM 1986-10-07 21:00:00 TS 14.5930 117.918 main 232 232 _PPP______P___ -1 13.7500 117.100 2 1004 0 0 14.8722 118.185 1 29 1002 14.9500 118.215 TD 27 1005 14.7998 118.171 1 25 4 267
1986275N10134 1986 100 WP MM DOM 1986-10-08 00:00:00 TS 14.5750 117.700 1004 tokyo main 252 252 _OOO______O___ -1 13.8000 116.800 2 1004 0 0 0 14.7000 117.900 1 29 1002 15.0000 118.100 TD 30 1004 14.8000 118.000 1 25 5 260
1986275N10134 1986 100 WP MM DOM 1986-10-08 03:00:00 TS 14.5088 117.426 main 286 286 _PPP______P___ -1 13.7625 116.485 2 1003 0 0 14.5052 117.442 1 29 1002 14.9924 117.952 TD 30 1004 14.7752 117.823 1 25 6 261
1986275N10134 1986 100 WP MM DOM 1986-10-08 06:00:00 TS 14.4886 117.128 1002 tokyo main 317 317 _OOO______P___ -1 13.8000 116.200 2 1002 0 0 0 14.4000 117.000 1 29 1002 15.0000 117.700 TD 30 1004 14.7543 117.612 1 25 6 279
1986275N10134 1986 100 WP MM DOM 1986-10-08 09:00:00 TS 14.6022 116.838 main 344 344 _PPP______P___ -1 14.0549 115.993 2 1001 0 0 14.5123 116.728 1 29 1002 15.0851 117.288 TD 30 1004 14.7563 117.345 1 25 7 296
1986275N10134 1986 100 WP MM DOM 1986-10-08 12:00:00 TS 14.7750 116.525 1000 tokyo main 368 368 _OOO______O___ -1 14.4000 115.800 2 1000 0 0 0 14.7000 116.500 1 29 1002 15.2000 116.800 TD 30 1004 14.8000 117.000 1 25 7 297
1986275N10134 1986 100 WP MM DOM 1986-10-08 15:00:00 TS 14.9313 116.164 main 394 394 _PPP______P___ -1 14.7075 115.543 2 1000 0 0 14.8149 116.230 1 29 1002 15.3074 116.350 TD 30 1004 14.8953 116.534 1 28 8 293
1986275N10134 1986 100 WP MM DOM 1986-10-08 18:00:00 TS 15.0834 115.774 1000 tokyo main 429 429 _OOO______P___ -1 15.0000 115.300 2 1000 0 0 0 14.9000 115.900 1 29 1002 15.4000 115.900 TD 30 1004 15.0334 115.995 1 32 8 291
1986275N10134 1986 100 WP MM DOM 1986-10-08 21:00:00 TS 15.2174 115.373 main 469 469 _PPP______P___ -1 15.2573 115.172 2 999 0 0 14.9577 115.442 1 29 1002 15.4500 115.442 TD 32 1003 15.2047 115.434 1 36 8 289
1986275N10134 1986 100 WP MM DOM 1986-10-09 00:00:00 TS 15.3529 114.971 40 998 tokyo main 507 507 OOOO______O___ jtwc_wp WP181986 15.4000 114.900 40 0 15.5000 115.000 3 40 998 0 9 100 100 0 15.0000 115.000 1 29 1002 15.5000 115.000 TS 35 1002 15.4000 114.900 2 40 8 292
1986275N10134 1986 100 WP MM DOM 1986-10-09 03:00:00 TS 15.5214 114.588 main 548 524 PPPP______P___ WP181986 15.7303 114.430 40 0 15.7651 114.630 3 40 997 0 9 100 100 15.0197 114.750 1 33 998 15.5774 114.585 TS 37 1000 15.6191 114.464 2 41 8 296
1986275N10134 1986 100 WP MM DOM 1986-10-09 06:00:00 TS 15.7172 114.203 40 996 tokyo main 524 477 OOOO______P___ jtwc_wp WP181986 16.0000 114.000 40 0 16.0000 114.200 3 40 996 0 9 100 100 0 15.1000 114.500 2 38 995 15.7000 114.200 TS 40 998 15.8567 114.063 2 42 8 298
1986275N10134 1986 100 WP MM DOM 1986-10-09 09:00:00 TS 15.9221 113.819 main 477 438 PPPP______P___ WP181986 16.1724 113.635 42 0 16.1648 113.857 3 40 996 0 9 100 100 15.3051 114.073 2 38 995 15.8774 113.850 TS 42 997 16.0911 113.680 2 43 8 299
1986275N10134 1986 100 WP MM DOM 1986-10-09 12:00:00 TS 16.1200 113.440 40 996 tokyo main 431 392 OOOO______O___ jtwc_wp WP181986 16.3000 113.300 45 0 16.3000 113.500 3 40 996 0 9 100 100 0 15.6000 113.600 2 38 995 16.1000 113.500 TS 45 996 16.3000 113.300 2 45 9 299
1986275N10134 1986 100 WP MM DOM 1986-10-09 15:00:00 TS 16.3413 113.046 main 384 346 PPPP______P___ WP181986 16.4574 112.965 45 0 16.4575 113.058 3 40 996 0 9 100 100 15.9574 113.193 2 38 995 16.3724 113.115 TS 45 996 16.4616 112.900 2 43 9 299
1986275N10134 1986 100 WP MM DOM 1986-10-09 18:00:00 TS 16.5389 112.640 40 996 tokyo main 339 294 OOOO______P___ jtwc_wp WP181986 16.6000 112.600 45 0 16.6000 112.600 3 40 996 0 9 100 100 0 16.3000 112.800 2 38 995 16.6000 112.700 TS 45 996 16.5947 112.500 2 42 9 293
1986275N10134 1986 100 WP MM DOM 1986-10-09 21:00:00 TS 16.6705 112.223 main 294 259 PPPP______P___ WP181986 16.7075 112.157 42 0 16.7148 112.200 3 40 997 0 9 100 100 16.5374 112.407 2 38 995 16.6875 112.250 TS 42 997 16.7054 112.100 2 41 8 285
1986275N10134 1986 100 WP MM DOM 1986-10-10 00:00:00 TS 16.7600 111.800 40 998 tokyo main 259 232 OOOO______O___ jtwc_wp WP181986 16.8000 111.700 40 0 16.8000 111.800 3 40 998 0 9 100 100 0 16.7000 112.000 2 38 995 16.7000 111.800 TS 40 998 16.8000 111.700 2 40 8 281
1986275N10134 1986 100 WP MM DOM 1986-10-10 03:00:00 TS 16.8301 111.377 main 232 198 PPPP______P___ WP181986 16.9074 111.292 40 0 16.8574 111.357 3 40 998 0 9 100 100 16.8151 111.535 2 43 994 16.6773 111.400 TS 40 999 16.8932 111.300 2 38 8 279
1986275N10134 1986 100 WP MM DOM 1986-10-10 06:00:00 TS 16.8944 110.960 40 998 tokyo main 198 164 OOOO______P___ jtwc_wp WP181986 17.0000 110.900 40 0 16.9000 110.900 3 40 998 0 9 100 100 0 16.9000 111.100 3 48 993 16.7000 111.000 TS 40 1000 16.9722 110.900 2 37 8 281
1986275N10134 1986 100 WP MM DOM 1986-10-10 09:00:00 TS 16.9879 110.560 main 164 134 PPPP______P___ WP181986 17.0574 110.500 37 0 16.9424 110.442 3 40 998 0 9 100 100 17.0072 110.807 3 43 995 16.8925 110.550 TS 37 1000 17.0401 110.500 2 36 8 284
1986275N10134 1986 100 WP MM DOM 1986-10-10 12:00:00 TS 17.0800 110.160 40 998 tokyo main 134 112 OOOO______O___ jtwc_wp WP181986 17.1000 110.100 35 0 17.0000 110.000 3 40 998 0 9 100 100 0 17.1000 110.500 2 38 998 17.1000 110.100 TS 35 1000 17.1000 110.100 2 35 8 282
1986275N10134 1986 100 WP MM DOM 1986-10-10 15:00:00 TS 17.1542 109.741 main 111 111 PPPP______P___ WP181986 17.1499 109.700 35 0 17.0999 109.593 3 40 998 0 9 100 100 17.1577 110.015 2 38 998 17.2023 109.700 TS 35 1001 17.1610 109.700 2 35 8 279
1986275N10134 1986 100 WP MM DOM 1986-10-10 18:00:00 TS 17.2029 109.320 40 998 tokyo main 113 113 OOOO______P___ jtwc_wp WP181986 17.2000 109.300 35 0 17.2000 109.200 3 40 998 0 9 100 100 0 17.2000 109.500 2 38 998 17.2000 109.300 TS 35 1002 17.2147 109.300 2 35 8 274
1986275N10134 1986 100 WP MM DOM 1986-10-10 21:00:00 TS 17.2166 108.905 main 128 116 PPPP______P___ WP181986 17.2574 108.900 35 0 17.2574 108.800 3 40 998 0 9 100 100 17.2273 109.085 2 33 999 17.0800 108.842 TS 35 1002 17.2610 108.900 2 35 8 271
1986275N10134 1986 100 WP MM DOM 1986-10-11 00:00:00 TS 17.2200 108.500 40 998 tokyo main 116 85 OOOO______O___ jtwc_wp WP181986 17.3000 108.500 35 0 17.3000 108.400 3 40 998 0 9 100 100 0 17.3000 108.700 1 29 1000 16.9000 108.400 TS 35 1002 17.3000 108.500 2 35 8 271
1986275N10134 1986 100 WP MM DOM 1986-10-11 03:00:00 TS 17.2327 108.110 main 85 61 PPPP______P___ WP181986 17.2999 108.100 35 0 17.3499 108.000 3 40 999 0 9 90 90 17.4999 108.308 1 29 1000 16.7349 108.035 TS 35 1002 17.2790 108.107 2 33 8 271
1986275N10134 1986 100 WP MM DOM 1986-10-11 06:00:00 TS 17.2283 107.713 40 1000 tokyo main 61 24 OOOO______P___ jtwc_wp WP181986 17.3000 107.700 35 0 17.4000 107.600 3 40 1000 0 9 80 80 0 17.7000 107.900 1 29 1000 16.6000 107.700 TS 35 1002 17.2595 107.713 2 32 8 269
1986275N10134 1986 100 WP MM DOM 1986-10-11 09:00:00 TS 17.2219 107.316 main 24 10 PPPP______P___ WP181986 17.3198 107.322 32 -1 17.4949 107.200 3 37 1000 0 9 70 70 17.7877 107.460 1 26 1002 16.5049 107.357 TS 32 1003 17.2852 107.313 2 31 8 274
1986275N10134 1986 100 WP MM DOM 1986-10-11 12:00:00 TS 17.2812 106.900 35 1000 tokyo main 10 0 OOOO______O___ jtwc_wp WP181986 17.4000 106.900 30 -1 17.5000 106.800 3 35 1000 0 9 60 60 0 17.8000 107.000 1 23 1005 16.5000 107.000 TD 30 1004 17.4000 106.900 1 30 8 279
1986275N10134 1986 100 WP MM DOM 1986-10-11 15:00:00 TS 17.3521 106.438 main 0 0 PP_P______P___ WP181986 17.5327 106.342 30 -1 17.2573 106.415 3 1002 0 9 1 16.6152 106.610 TD 27 1004 17.6346 106.469 1 28 9 284
1986275N10134 1986 100 WP MM DOM 1986-10-11 18:00:00 TS 17.5106 105.967 1004 tokyo main 0 0 OO_O______P___ jtwc_wp WP181986 17.8000 105.800 30 -1 17.0000 106.000 2 1004 0 0 0 16.8000 106.200 TD 25 1004 17.9685 106.023 1 27 10 299
1986275N10134 1986 100 WP MM DOM 1986-10-11 21:00:00 TS 17.8503 105.496 main 0 0 PP________P___ WP181986 18.2474 105.403 27 -1 16.9353 105.520 2 1006 0 0 TD 18.3682 105.565 1 26 11 309
1986275N10134 1986 100 WP MM DOM 1986-10-12 00:00:00 TS 18.2000 105.067 1008 tokyo main 0 OO________O___ jtwc_wp WP181986 18.8000 105.100 25 -1 17.0000 105.000 2 1008 0 0 0 18.8000 105.100 1 25 11 311

Digital Typhoon Data and Search

About IBTrACS Database

This database is a web-friendly format of International Best Track Archive for Climate Stewardship (IBTrACS), a global best track data archive curated by NOAA dating back to 1842.

Updated: 2021-10-08